createdAt,value
2023-05-18T00:02:13.434Z,99.90
2023-05-18T00:04:49.724Z,99.90
2023-05-18T00:07:18.044Z,99.90
2023-05-18T00:09:45.022Z,99.90
2023-05-18T00:12:11.718Z,99.90
2023-05-18T00:14:38.530Z,99.90
2023-05-18T00:17:06.562Z,99.90
2023-05-18T00:19:33.283Z,99.90
2023-05-18T00:22:00.050Z,99.90
2023-05-18T00:24:26.893Z,99.90
2023-05-18T00:26:53.661Z,99.90
2023-05-18T00:29:20.501Z,99.90
2023-05-18T00:31:47.296Z,99.90
2023-05-18T00:34:15.240Z,99.90
2023-05-18T00:36:42.087Z,99.90
2023-05-18T00:39:10.338Z,99.90
2023-05-18T00:41:37.680Z,99.90
2023-05-18T00:44:06.057Z,99.90
2023-05-18T00:46:33.255Z,99.90
2023-05-18T00:49:02.983Z,99.90
2023-05-18T00:51:33.782Z,99.90
2023-05-18T00:54:02.130Z,99.90
2023-05-18T00:56:29.246Z,99.90
2023-05-18T00:58:56.666Z,99.90
2023-05-18T01:01:27.518Z,99.90
2023-05-18T01:03:55.392Z,99.90
2023-05-18T01:06:22.654Z,99.90
2023-05-18T01:08:49.465Z,99.90
2023-05-18T01:11:32.646Z,99.90
2023-05-18T01:14:08.750Z,99.90
2023-05-18T01:16:42.936Z,99.90
2023-05-18T01:19:46.996Z,99.90
2023-05-18T01:22:32.264Z,99.90
2023-05-18T01:25:04.924Z,99.90
2023-05-18T01:27:34.083Z,99.90
2023-05-18T01:30:01.071Z,99.90
2023-05-18T01:32:27.893Z,99.90
2023-05-18T01:34:54.659Z,99.90
2023-05-18T01:37:21.565Z,99.90
2023-05-18T01:39:49.862Z,99.90
2023-05-18T01:42:24.084Z,99.90
2023-05-18T01:45:16.383Z,99.90
2023-05-18T01:47:46.253Z,99.90
2023-05-18T01:50:19.806Z,99.90
2023-05-18T01:52:48.545Z,99.90
2023-05-18T01:55:17.863Z,99.90
2023-05-18T01:57:48.761Z,99.90
2023-05-18T02:00:17.593Z,99.90
2023-05-18T02:02:45.205Z,99.90
2023-05-18T02:05:13.173Z,99.90
2023-05-18T02:07:40.773Z,99.90
2023-05-18T02:10:09.855Z,99.90
2023-05-18T02:12:39.439Z,99.90
2023-05-18T02:15:09.971Z,99.90
2023-05-18T02:17:37.078Z,99.90
2023-05-18T02:20:07.762Z,99.90
2023-05-18T02:22:35.271Z,99.90
2023-05-18T02:25:02.949Z,99.90
2023-05-18T02:27:29.974Z,99.90
2023-05-18T02:29:56.991Z,99.90
2023-05-18T02:32:24.168Z,99.90
2023-05-18T02:34:54.405Z,99.90
2023-05-18T02:37:21.135Z,99.90
2023-05-18T02:39:47.911Z,99.90
2023-05-18T02:42:14.705Z,99.90
2023-05-18T02:44:41.543Z,99.90
2023-05-18T02:47:08.592Z,99.90
2023-05-18T02:49:35.360Z,99.90
2023-05-18T02:52:02.604Z,99.90
2023-05-18T02:54:29.413Z,99.90
2023-05-18T02:56:56.222Z,99.90
2023-05-18T02:59:23.951Z,99.90
2023-05-18T03:01:52.106Z,99.90
2023-05-18T03:04:21.502Z,99.90
2023-05-18T03:06:48.252Z,99.90
2023-05-18T03:09:15.126Z,99.90
2023-05-18T03:11:41.952Z,99.90
2023-05-18T03:14:08.970Z,99.90
2023-05-18T03:16:35.795Z,99.90
2023-05-18T03:19:02.649Z,99.90
2023-05-18T03:21:29.617Z,99.90
2023-05-18T03:23:56.477Z,99.90
2023-05-18T03:26:23.336Z,99.90
2023-05-18T03:28:52.137Z,99.90
2023-05-18T03:31:18.956Z,99.90
2023-05-18T03:33:47.044Z,99.90
2023-05-18T03:36:14.007Z,99.90
2023-05-18T03:38:42.113Z,99.90
2023-05-18T03:41:11.185Z,99.90
2023-05-18T03:43:41.901Z,99.90
2023-05-18T03:46:08.720Z,99.90
2023-05-18T03:48:35.465Z,99.90
2023-05-18T03:51:02.766Z,99.90
2023-05-18T03:53:29.568Z,99.90
2023-05-18T03:55:56.540Z,99.90
2023-05-18T03:58:23.680Z,99.90
2023-05-18T04:00:51.845Z,99.90
2023-05-18T04:03:18.980Z,99.90
2023-05-18T04:05:47.239Z,99.90
2023-05-18T04:08:14.555Z,99.90
2023-05-18T04:10:44.609Z,99.90
2023-05-18T04:13:12.595Z,99.90
2023-05-18T04:15:42.276Z,99.90
2023-05-18T04:18:11.373Z,99.90
2023-05-18T04:20:38.455Z,99.90
2023-05-18T04:23:07.933Z,99.90
2023-05-18T04:25:34.850Z,99.90
2023-05-18T04:28:01.960Z,99.90
2023-05-18T04:30:29.359Z,99.90
2023-05-18T04:32:56.289Z,99.90
2023-05-18T04:35:23.153Z,99.90
2023-05-18T04:37:50.157Z,99.90
2023-05-18T04:40:17.696Z,99.90
2023-05-18T04:42:46.985Z,99.90
2023-05-18T04:45:15.142Z,99.90
2023-05-18T04:47:42.694Z,99.90
2023-05-18T04:50:10.997Z,99.90
2023-05-18T04:52:37.801Z,99.90
2023-05-18T04:55:06.432Z,99.90
2023-05-18T04:57:33.265Z,99.90
2023-05-18T05:00:01.218Z,99.90
2023-05-18T05:02:35.533Z,99.90
2023-05-18T05:05:03.638Z,99.90
2023-05-18T05:07:30.553Z,99.90
2023-05-18T05:09:57.340Z,99.90
2023-05-18T05:12:24.631Z,99.90
2023-05-18T05:14:51.601Z,99.90
2023-05-18T05:17:18.500Z,99.90
2023-05-18T05:19:45.252Z,99.90
2023-05-18T05:22:12.120Z,99.90
2023-05-18T05:24:38.873Z,99.90
2023-05-18T05:27:05.910Z,99.90
2023-05-18T05:29:32.791Z,99.90
2023-05-18T05:32:01.412Z,99.90
2023-05-18T05:34:31.302Z,99.90
2023-05-18T05:36:59.786Z,99.90
2023-05-18T05:39:27.969Z,99.90
2023-05-18T05:41:54.818Z,99.90
2023-05-18T05:44:21.675Z,99.90
2023-05-18T05:46:48.809Z,99.90
2023-05-18T05:49:15.918Z,99.90
2023-05-18T05:51:42.731Z,99.90
2023-05-18T05:54:10.778Z,99.90
2023-05-18T05:56:37.696Z,99.90
2023-05-18T05:59:04.899Z,99.90
2023-05-18T06:01:31.754Z,99.90
2023-05-18T06:03:58.723Z,99.90
2023-05-18T06:06:26.649Z,99.90
2023-05-18T06:08:53.494Z,99.90
2023-05-18T06:11:20.580Z,99.90
2023-05-18T06:13:48.958Z,99.90
2023-05-18T06:16:17.835Z,99.90
2023-05-18T06:18:47.060Z,99.90
2023-05-18T06:21:14.295Z,99.90
2023-05-18T06:23:42.157Z,99.90
2023-05-18T06:26:09.049Z,99.90
2023-05-18T06:28:35.985Z,99.90
2023-05-18T06:31:02.807Z,99.90
2023-05-18T06:33:29.652Z,99.90
2023-05-18T06:35:57.460Z,99.90
2023-05-18T06:38:24.337Z,99.90
2023-05-18T06:40:51.194Z,99.90
2023-05-18T06:43:19.508Z,99.90
2023-05-18T06:45:47.775Z,99.90
2023-05-18T06:48:15.585Z,99.90
2023-05-18T06:50:43.423Z,99.90
2023-05-18T06:53:11.319Z,99.90
2023-05-18T06:55:39.252Z,99.90
2023-05-18T06:58:07.315Z,99.90
2023-05-18T07:00:36.087Z,99.90
2023-05-18T07:03:06.764Z,99.90
2023-05-18T07:05:39.800Z,99.90
2023-05-18T07:08:11.362Z,99.90
2023-05-18T07:10:48.502Z,99.90
2023-05-18T07:13:16.672Z,99.90
2023-05-18T07:15:47.349Z,99.90
2023-05-18T07:18:17.609Z,99.90
2023-05-18T07:20:44.617Z,99.90
2023-05-18T07:23:16.380Z,99.90
2023-05-18T07:25:43.266Z,99.90
2023-05-18T07:28:12.413Z,99.90
2023-05-18T07:30:39.330Z,99.90
2023-05-18T07:33:06.168Z,99.90
2023-05-18T07:35:33.104Z,99.90
2023-05-18T07:38:00.071Z,99.90
2023-05-18T07:40:26.960Z,99.90
2023-05-18T07:42:54.339Z,99.90
2023-05-18T07:45:21.179Z,99.90
2023-05-18T07:47:47.986Z,99.90
2023-05-18T07:50:14.781Z,99.90
2023-05-18T07:52:41.544Z,99.90
2023-05-18T07:55:09.719Z,99.90
2023-05-18T07:57:37.984Z,99.90
2023-05-18T08:00:05.456Z,99.90
2023-05-18T08:02:33.857Z,99.90
2023-05-18T08:05:00.926Z,99.90
2023-05-18T08:07:29.132Z,99.90
2023-05-18T08:09:56.603Z,99.90
2023-05-18T08:12:23.476Z,99.90
2023-05-18T08:14:51.112Z,99.90
2023-05-18T08:17:17.952Z,99.90
2023-05-18T08:19:44.703Z,99.90
2023-05-18T08:22:11.682Z,99.90
2023-05-18T08:24:38.632Z,99.90
2023-05-18T08:27:05.766Z,99.90
2023-05-18T08:29:32.802Z,99.90
2023-05-18T08:31:59.802Z,99.90
2023-05-18T08:34:26.711Z,99.90
2023-05-18T08:36:56.882Z,99.80
2023-05-18T08:39:24.939Z,99.60
2023-05-18T08:42:19.415Z,99.30
2023-05-18T08:44:53.387Z,99.00
2023-05-18T08:47:22.332Z,99.20
2023-05-18T08:49:52.152Z,99.40
2023-05-18T08:52:24.775Z,99.30
2023-05-18T08:54:53.061Z,99.00
2023-05-18T08:57:22.072Z,99.30
2023-05-18T08:59:52.984Z,99.40
2023-05-18T09:02:21.302Z,99.00
2023-05-18T09:04:49.770Z,99.40
2023-05-18T09:07:23.423Z,98.70
2023-05-18T09:09:52.761Z,98.70
2023-05-18T09:12:23.587Z,99.00
2023-05-18T09:14:52.858Z,99.40
2023-05-18T09:17:19.716Z,99.50
2023-05-18T09:19:46.489Z,99.10
2023-05-18T09:22:13.576Z,98.80
2023-05-18T09:24:42.255Z,98.00
2023-05-18T09:27:09.088Z,97.40
2023-05-18T09:29:55.346Z,97.60
2023-05-18T09:32:22.973Z,96.40
2023-05-18T09:34:51.044Z,96.10
2023-05-18T09:37:22.175Z,96.10
2023-05-18T09:40:04.520Z,96.60
2023-05-18T09:42:41.565Z,96.30
2023-05-18T09:45:22.471Z,95.10
2023-05-18T09:47:50.897Z,95.30
2023-05-18T09:50:21.695Z,94.90
2023-05-18T09:52:50.583Z,94.10
2023-05-18T09:55:18.412Z,93.40
2023-05-18T09:57:48.599Z,93.40
2023-05-18T10:00:16.523Z,92.50
2023-05-18T10:02:46.907Z,91.70
2023-05-18T10:05:25.421Z,91.90
2023-05-18T10:07:53.276Z,92.10
2023-05-18T10:10:25.700Z,91.90
2023-05-18T10:12:54.085Z,91.50
2023-05-18T10:15:22.541Z,91.10
2023-05-18T10:17:51.297Z,91.40
2023-05-18T10:20:22.113Z,91.50
2023-05-18T10:22:50.244Z,91.00
2023-05-18T10:25:26.249Z,91.00
2023-05-18T10:28:03.541Z,90.70
2023-05-18T10:30:33.207Z,90.40
2023-05-18T10:33:01.586Z,90.30
2023-05-18T10:35:30.168Z,88.50
2023-05-18T10:37:59.121Z,87.50
2023-05-18T10:40:29.485Z,88.30
2023-05-18T10:43:04.015Z,88.10
2023-05-18T10:45:37.244Z,89.40
2023-05-18T10:48:09.407Z,89.80
2023-05-18T10:50:39.972Z,89.90
2023-05-18T10:53:09.820Z,90.20
2023-05-18T10:55:36.625Z,88.40
2023-05-18T10:58:16.498Z,86.90
2023-05-18T11:00:49.335Z,85.40
2023-05-18T11:03:19.144Z,84.50
2023-05-18T11:05:50.717Z,85.00
2023-05-18T11:08:27.604Z,84.60
2023-05-18T11:11:06.136Z,84.10
2023-05-18T11:13:35.406Z,84.10
2023-05-18T11:16:05.836Z,84.10
2023-05-18T11:18:38.726Z,84.10
2023-05-18T11:21:24.924Z,83.80
2023-05-18T11:24:10.678Z,84.10
2023-05-18T11:26:41.195Z,82.90
2023-05-18T11:29:40.204Z,83.50
2023-05-18T11:32:29.330Z,82.70
2023-05-18T11:34:59.132Z,83.40
2023-05-18T11:37:38.260Z,83.90
2023-05-18T11:40:12.734Z,82.10
2023-05-18T11:42:39.781Z,80.40
2023-05-18T11:45:10.808Z,80.50
2023-05-18T11:47:38.256Z,80.60
2023-05-18T11:50:08.279Z,79.90
2023-05-18T11:52:49.059Z,79.00
2023-05-18T11:55:17.953Z,77.60
2023-05-18T11:57:47.467Z,76.20
2023-05-18T12:00:15.237Z,75.60
2023-05-18T12:02:49.613Z,75.00
2023-05-18T12:05:17.596Z,73.50
2023-05-18T12:07:52.868Z,72.50
2023-05-18T12:10:22.079Z,71.60
2023-05-18T12:12:53.881Z,71.30
2023-05-18T12:15:24.512Z,70.00
2023-05-18T12:17:51.748Z,70.00
2023-05-18T12:20:21.274Z,69.60
2023-05-18T12:22:53.584Z,68.90
2023-05-18T12:25:25.295Z,66.70
2023-05-18T12:27:53.871Z,67.10
2023-05-18T12:30:22.576Z,65.40
2023-05-18T12:32:57.729Z,64.40
2023-05-18T12:35:28.889Z,64.10
2023-05-18T12:37:57.251Z,64.30
2023-05-18T12:40:24.345Z,63.80
2023-05-18T12:42:55.785Z,64.10
2023-05-18T12:45:34.304Z,65.10
2023-05-18T12:48:14.469Z,65.00
2023-05-18T12:50:48.424Z,62.90
2023-05-18T12:53:15.449Z,63.40
2023-05-18T12:55:42.284Z,63.10
2023-05-18T12:58:14.403Z,62.70
2023-05-18T13:00:46.279Z,61.50
2023-05-18T13:03:19.325Z,60.80
2023-05-18T13:06:01.807Z,60.40
2023-05-18T13:08:28.830Z,60.00
2023-05-18T13:11:13.813Z,60.30
2023-05-18T13:13:57.731Z,60.20
2023-05-18T13:16:24.689Z,60.60
2023-05-18T13:19:04.767Z,59.50
2023-05-18T13:21:32.698Z,59.50
2023-05-18T13:23:59.658Z,58.60
2023-05-18T13:26:27.317Z,58.00
2023-05-18T13:28:57.330Z,56.60
2023-05-18T13:31:26.845Z,56.10
2023-05-18T13:33:53.646Z,55.10
2023-05-18T13:36:20.598Z,54.60
2023-05-18T13:38:47.752Z,54.00
2023-05-18T13:41:14.929Z,54.30
2023-05-18T13:43:42.132Z,53.60
2023-05-18T13:46:09.586Z,54.40
2023-05-18T13:48:37.715Z,54.70
2023-05-18T13:51:04.968Z,54.30
2023-05-18T13:53:33.288Z,52.30
2023-05-18T13:56:01.676Z,51.50
2023-05-18T13:58:29.973Z,50.60
2023-05-18T14:00:56.823Z,50.40
2023-05-18T14:03:24.746Z,50.40
2023-05-18T14:05:51.786Z,50.90
2023-05-18T14:08:18.552Z,51.90
2023-05-18T14:10:45.345Z,52.40
2023-05-18T14:13:12.192Z,51.50
2023-05-18T14:15:39.012Z,50.70
2023-05-18T14:18:06.049Z,50.30
2023-05-18T14:20:33.235Z,50.10
2023-05-18T14:23:00.414Z,50.70
2023-05-18T14:25:27.311Z,50.40
2023-05-18T14:27:54.265Z,50.50
2023-05-18T14:30:21.207Z,50.00
2023-05-18T14:32:49.068Z,49.80
2023-05-18T14:35:16.528Z,50.20
2023-05-18T14:37:47.000Z,49.80
2023-05-18T14:40:14.791Z,49.30
2023-05-18T14:42:41.840Z,48.80
2023-05-18T14:45:11.774Z,48.90
2023-05-18T14:47:38.627Z,49.00
2023-05-18T14:50:06.095Z,48.50
2023-05-18T14:52:32.877Z,48.80
2023-05-18T14:54:59.696Z,50.00
2023-05-18T14:57:27.054Z,50.90
2023-05-18T14:59:54.187Z,50.70
2023-05-18T15:02:20.950Z,50.90
2023-05-18T15:04:49.001Z,50.90
2023-05-18T15:07:15.854Z,50.40
2023-05-18T15:09:44.328Z,50.90
2023-05-18T15:12:11.405Z,51.50
2023-05-18T15:14:40.372Z,51.50
2023-05-18T15:17:09.393Z,51.60
2023-05-18T15:19:36.138Z,51.50
2023-05-18T15:22:02.958Z,51.50
2023-05-18T15:24:29.818Z,51.30
2023-05-18T15:26:56.951Z,51.50
2023-05-18T15:29:23.726Z,51.10
2023-05-18T15:31:50.600Z,51.40
2023-05-18T15:34:17.444Z,51.90
2023-05-18T15:36:44.428Z,52.20
2023-05-18T15:39:11.668Z,52.40
2023-05-18T15:41:38.593Z,52.40
2023-05-18T15:44:06.757Z,52.30
2023-05-18T15:46:33.943Z,52.40
2023-05-18T15:49:03.100Z,51.60
2023-05-18T15:51:30.454Z,51.30
2023-05-18T15:54:00.294Z,51.50
2023-05-18T15:56:28.694Z,51.00
2023-05-18T16:01:37.440Z,51.20
2023-05-18T16:04:04.618Z,51.00
2023-05-18T16:06:32.729Z,51.30
2023-05-18T16:08:59.712Z,51.60
2023-05-18T16:11:26.514Z,51.60
2023-05-18T16:13:57.132Z,51.30
2023-05-18T16:16:25.399Z,51.50
2023-05-18T16:18:55.501Z,51.60
2023-05-18T16:21:22.618Z,51.40
2023-05-18T16:23:56.820Z,51.60
2023-05-18T16:26:23.702Z,51.80
2023-05-18T16:28:50.567Z,52.00
2023-05-18T16:31:17.503Z,51.90
2023-05-18T16:33:44.375Z,52.00
2023-05-18T16:36:11.258Z,52.00
2023-05-18T16:38:38.414Z,52.20
2023-05-18T16:41:05.883Z,52.40
2023-05-18T16:43:34.334Z,52.40
2023-05-18T16:46:05.451Z,52.60
2023-05-18T16:48:33.574Z,52.80
2023-05-18T16:51:02.654Z,52.80
2023-05-18T16:53:30.597Z,52.90
2023-05-18T16:55:59.023Z,53.00
2023-05-18T16:58:27.354Z,53.00
2023-05-18T17:00:54.185Z,53.20
2023-05-18T17:03:21.174Z,53.20
2023-05-18T17:05:48.537Z,53.30
2023-05-18T17:10:53.213Z,53.30
2023-05-18T17:13:20.178Z,53.20
2023-05-18T17:15:47.334Z,53.40
2023-05-18T17:18:14.218Z,53.70
2023-05-18T17:20:41.008Z,54.00
2023-05-18T17:23:07.741Z,54.10
2023-05-18T17:25:35.002Z,54.30
2023-05-18T17:28:01.715Z,54.40
2023-05-18T17:30:28.706Z,54.50
2023-05-18T17:32:56.535Z,54.50
2023-05-18T17:35:25.759Z,54.50
2023-05-18T17:37:54.538Z,54.90
2023-05-18T17:40:25.125Z,55.40
2023-05-18T17:42:54.650Z,55.30
2023-05-18T17:45:25.551Z,55.00
2023-05-18T17:47:52.833Z,55.30
2023-05-18T17:50:25.465Z,55.50
2023-05-18T17:52:52.274Z,55.50
2023-05-18T17:55:20.529Z,55.60
2023-05-18T17:57:47.375Z,55.60
2023-05-18T18:00:14.720Z,55.80
2023-05-18T18:02:41.631Z,56.20
2023-05-18T18:05:08.963Z,56.40
2023-05-18T18:07:36.124Z,56.60
2023-05-18T18:10:03.933Z,56.40
2023-05-18T18:12:30.760Z,56.40
2023-05-18T18:15:00.640Z,56.30
2023-05-18T18:17:27.563Z,56.70
2023-05-18T18:20:02.155Z,57.10
2023-05-18T18:22:35.089Z,57.10
2023-05-18T18:25:03.943Z,57.30
2023-05-18T18:27:30.738Z,57.50
2023-05-18T18:30:00.759Z,57.70
2023-05-18T18:32:31.310Z,58.30
2023-05-18T18:34:59.400Z,58.70
2023-05-18T18:37:26.385Z,58.80
2023-05-18T18:39:53.378Z,59.10
2023-05-18T18:42:21.461Z,59.40
2023-05-18T18:44:49.036Z,59.60
2023-05-18T18:47:16.136Z,59.90
2023-05-18T18:49:43.226Z,60.30
2023-05-18T18:52:11.872Z,60.70
2023-05-18T18:54:40.542Z,60.80
2023-05-18T18:57:07.520Z,61.00
2023-05-18T18:59:35.834Z,61.00
2023-05-18T19:02:02.848Z,61.30
2023-05-18T19:04:31.240Z,61.30
2023-05-18T19:07:00.712Z,61.70
2023-05-18T19:09:30.716Z,61.80
2023-05-18T19:11:59.552Z,62.10
2023-05-18T19:14:26.611Z,62.40
2023-05-18T19:16:54.308Z,62.40
2023-05-18T19:19:21.204Z,62.70
2023-05-18T19:21:48.017Z,63.00
2023-05-18T19:24:14.733Z,63.00
2023-05-18T19:26:41.524Z,63.20
2023-05-18T19:29:08.284Z,63.60
2023-05-18T19:31:35.388Z,63.80
2023-05-18T19:34:03.526Z,64.10
2023-05-18T19:36:30.432Z,64.20
2023-05-18T19:38:58.789Z,64.40
2023-05-18T19:41:27.715Z,64.60
2023-05-18T19:43:58.895Z,64.70
2023-05-18T19:46:31.658Z,65.20
2023-05-18T19:48:58.573Z,65.70
2023-05-18T19:51:25.360Z,65.80
2023-05-18T19:53:52.333Z,66.00
2023-05-18T19:56:19.251Z,65.90
2023-05-18T19:58:46.083Z,66.40
2023-05-18T20:01:13.151Z,67.10
2023-05-18T20:03:43.011Z,67.20
2023-05-18T20:06:10.398Z,67.60
2023-05-18T20:08:37.188Z,68.10
2023-05-18T20:11:05.520Z,68.50
2023-05-18T20:13:33.653Z,69.70
2023-05-18T20:16:01.844Z,69.70
2023-05-18T20:18:30.710Z,70.60
2023-05-18T20:21:02.107Z,72.00
2023-05-18T20:23:29.139Z,73.20
2023-05-18T20:25:56.064Z,73.40
2023-05-18T20:28:23.081Z,74.40
2023-05-18T20:30:49.899Z,74.50
2023-05-18T20:33:16.753Z,75.90
2023-05-18T20:35:45.170Z,76.30
2023-05-18T20:38:14.977Z,77.20
2023-05-18T20:40:41.982Z,77.30
2023-05-18T20:43:09.293Z,78.10
2023-05-18T20:45:36.332Z,79.10
2023-05-18T20:48:03.300Z,79.90
2023-05-18T20:50:32.569Z,80.10
2023-05-18T20:52:59.758Z,80.60
2023-05-18T20:55:26.652Z,81.00
2023-05-18T20:57:53.415Z,81.50
2023-05-18T21:00:20.299Z,81.70
2023-05-18T21:02:47.279Z,82.60
2023-05-18T21:05:14.994Z,82.80
2023-05-18T21:07:47.031Z,83.50
2023-05-18T21:10:13.919Z,83.60
2023-05-18T21:12:40.749Z,84.30
2023-05-18T21:15:08.121Z,85.20
2023-05-18T21:17:37.174Z,85.50
2023-05-18T21:20:04.448Z,86.40
2023-05-18T21:22:31.489Z,87.30
2023-05-18T21:24:58.274Z,87.90
2023-05-18T21:27:25.098Z,88.20
2023-05-18T21:30:00.972Z,89.10
2023-05-18T21:32:27.915Z,90.10
2023-05-18T21:34:55.275Z,90.20
2023-05-18T21:37:22.182Z,90.60
2023-05-18T21:39:48.933Z,90.70
2023-05-18T21:42:19.153Z,91.10
2023-05-18T21:44:46.335Z,91.50
2023-05-18T21:47:13.175Z,91.80
2023-05-18T21:49:40.277Z,92.10
2023-05-18T21:52:07.549Z,92.40
2023-05-18T21:54:36.147Z,92.60
2023-05-18T21:57:03.134Z,92.90
2023-05-18T21:59:31.091Z,93.30
2023-05-18T22:01:58.900Z,93.40
2023-05-18T22:04:28.878Z,93.90
2023-05-18T22:06:57.264Z,94.30
2023-05-18T22:09:26.725Z,94.40
2023-05-18T22:11:57.164Z,94.80
2023-05-18T22:14:27.018Z,95.20
2023-05-18T22:16:55.050Z,95.40
2023-05-18T22:19:25.232Z,95.80
2023-05-18T22:21:52.028Z,96.10
2023-05-18T22:24:18.919Z,96.30
2023-05-18T22:26:45.884Z,96.50
2023-05-18T22:29:13.463Z,96.80
2023-05-18T22:31:40.371Z,97.00
2023-05-18T22:34:07.415Z,97.40
2023-05-18T22:36:34.326Z,97.40
2023-05-18T22:39:01.174Z,97.60
2023-05-18T22:41:28.061Z,98.00
2023-05-18T22:43:55.128Z,98.00
2023-05-18T22:46:22.402Z,98.40
2023-05-18T22:48:50.484Z,98.70
2023-05-18T22:51:17.554Z,98.70
2023-05-18T22:53:45.910Z,98.70
2023-05-18T22:56:17.313Z,99.10
2023-05-18T22:58:44.097Z,99.60
2023-05-18T23:01:10.856Z,99.70
2023-05-18T23:03:37.604Z,99.80
2023-05-18T23:06:06.003Z,99.70
2023-05-18T23:08:32.809Z,99.70
2023-05-18T23:10:59.594Z,99.90
2023-05-18T23:13:26.391Z,99.80
2023-05-18T23:15:53.502Z,99.90
2023-05-18T23:18:21.483Z,99.90
2023-05-18T23:20:49.615Z,99.90
2023-05-18T23:23:17.411Z,99.90
2023-05-18T23:25:49.550Z,99.90
2023-05-18T23:28:17.952Z,99.90
2023-05-18T23:30:45.274Z,99.90
2023-05-18T23:33:13.182Z,99.90
2023-05-18T23:35:41.969Z,99.90
2023-05-18T23:38:10.679Z,99.90
2023-05-18T23:40:37.726Z,99.90
2023-05-18T23:43:04.816Z,99.90
2023-05-18T23:45:31.994Z,99.90
2023-05-18T23:48:01.557Z,99.90
2023-05-18T23:50:28.993Z,99.90
2023-05-18T23:53:01.944Z,99.90
2023-05-18T23:55:29.245Z,99.90
2023-05-18T23:57:57.110Z,99.90
